createdAt,value
2018-06-16T00:00:19.944Z,85.60
2018-06-16T00:02:47.493Z,85.60
2018-06-16T00:07:42.537Z,85.10
2018-06-16T00:10:10.101Z,85.40
2018-06-16T00:12:37.621Z,85.00
2018-06-16T00:15:05.226Z,84.70
2018-06-16T00:17:32.741Z,84.70
2018-06-16T00:20:00.278Z,84.20
2018-06-16T00:22:27.914Z,84.10
2018-06-16T00:24:58.353Z,84.00
2018-06-16T00:27:26.374Z,84.10
2018-06-16T00:29:53.972Z,84.10
2018-06-16T00:32:21.518Z,85.40
2018-06-16T00:34:55.653Z,84.00
2018-06-16T00:37:23.588Z,83.90
2018-06-16T00:39:51.165Z,83.70
2018-06-16T00:42:18.702Z,84.10
2018-06-16T00:44:46.259Z,82.70
2018-06-16T00:47:14.028Z,82.40
2018-06-16T00:49:41.810Z,82.30
2018-06-16T00:52:09.318Z,82.20
2018-06-16T00:54:37.058Z,82.00
2018-06-16T00:57:15.804Z,82.30
2018-06-16T00:59:43.334Z,82.40
2018-06-16T01:02:10.869Z,82.50
2018-06-16T01:04:38.426Z,82.40
2018-06-16T01:07:06.376Z,82.40
2018-06-16T01:09:33.907Z,81.30
2018-06-16T01:12:01.624Z,81.40
2018-06-16T01:14:29.186Z,81.40
2018-06-16T01:16:56.722Z,81.90
2018-06-16T01:21:58.704Z,83.60
2018-06-16T01:24:26.216Z,83.00
2018-06-16T01:26:53.756Z,83.10
2018-06-16T01:29:21.336Z,83.10
2018-06-16T01:31:48.862Z,83.00
2018-06-16T01:34:16.388Z,83.00
2018-06-16T01:36:43.938Z,83.60
2018-06-16T01:39:11.716Z,83.50
2018-06-16T01:41:39.300Z,83.40
2018-06-16T01:44:07.209Z,83.00
2018-06-16T01:46:34.806Z,82.80
2018-06-16T01:49:08.943Z,82.80
2018-06-16T01:51:36.501Z,82.90
2018-06-16T01:54:04.053Z,82.60
2018-06-16T01:56:31.630Z,82.70
2018-06-16T01:58:59.174Z,82.70
2018-06-16T02:01:26.710Z,82.70
2018-06-16T02:03:54.273Z,82.50
2018-06-16T02:06:21.830Z,82.60
2018-06-16T02:08:49.357Z,83.10
2018-06-16T02:11:16.873Z,83.50
2018-06-16T02:13:44.410Z,83.60
2018-06-16T02:16:11.933Z,83.30
2018-06-16T02:18:39.467Z,83.60
2018-06-16T02:21:07.008Z,83.80
2018-06-16T02:23:34.544Z,83.50
2018-06-16T02:26:02.122Z,83.60
2018-06-16T02:28:29.665Z,83.40
2018-06-16T02:30:57.168Z,83.40
2018-06-16T02:33:24.700Z,83.40
2018-06-16T02:35:52.208Z,84.00
2018-06-16T02:38:19.738Z,83.30
2018-06-16T02:40:47.256Z,83.20
2018-06-16T02:43:14.782Z,83.60
2018-06-16T02:45:42.315Z,83.70
2018-06-16T02:48:09.857Z,83.40
2018-06-16T02:50:37.529Z,83.70
2018-06-16T02:53:05.090Z,84.00
2018-06-16T02:55:32.614Z,84.60
2018-06-16T02:58:00.165Z,84.70
2018-06-16T03:00:27.699Z,84.30
2018-06-16T03:02:55.258Z,84.70
2018-06-16T03:05:22.786Z,84.80
2018-06-16T03:07:50.305Z,85.20
2018-06-16T03:10:17.853Z,85.80
2018-06-16T03:12:45.351Z,85.90
2018-06-16T03:15:12.933Z,86.10
2018-06-16T03:17:40.454Z,86.20
2018-06-16T03:20:07.999Z,86.30
2018-06-16T03:22:35.524Z,86.60
2018-06-16T03:25:03.109Z,87.20
2018-06-16T03:27:30.623Z,87.60
2018-06-16T03:29:58.171Z,87.80
2018-06-16T03:32:25.694Z,88.20
2018-06-16T03:34:53.217Z,88.50
2018-06-16T03:37:20.787Z,88.70
2018-06-16T03:39:48.321Z,88.90
2018-06-16T03:42:15.829Z,89.50
2018-06-16T03:44:43.362Z,89.50
2018-06-16T03:47:10.869Z,89.90
2018-06-16T03:52:05.898Z,90.00
2018-06-16T03:54:33.418Z,90.10
2018-06-16T03:57:00.958Z,90.10
2018-06-16T03:59:28.492Z,90.10
2018-06-16T04:01:56.115Z,90.10
2018-06-16T04:04:23.588Z,90.10
2018-06-16T04:06:51.143Z,90.10
2018-06-16T04:11:46.175Z,90.00
2018-06-16T04:14:13.771Z,90.00
2018-06-16T04:16:41.335Z,90.00
2018-06-16T04:19:08.870Z,89.90
2018-06-16T04:21:36.409Z,89.70
2018-06-16T04:24:03.965Z,89.80
2018-06-16T04:26:31.472Z,89.70
2018-06-16T04:28:58.974Z,89.80
2018-06-16T04:31:26.533Z,89.70
2018-06-16T04:33:54.101Z,89.80
2018-06-16T04:36:21.617Z,89.70
2018-06-16T04:38:49.131Z,89.80
2018-06-16T04:41:16.861Z,89.70
2018-06-16T04:43:44.383Z,89.60
2018-06-16T04:46:11.917Z,89.70
2018-06-16T04:48:39.434Z,89.30
2018-06-16T04:53:34.380Z,88.90
2018-06-16T04:56:01.898Z,88.10
2018-06-16T04:58:29.465Z,87.90
2018-06-16T05:00:56.985Z,87.70
2018-06-16T05:03:24.496Z,88.20
2018-06-16T05:05:52.002Z,88.20
2018-06-16T05:08:19.530Z,87.80
2018-06-16T05:10:47.037Z,88.30
2018-06-16T05:13:14.680Z,88.00
2018-06-16T05:15:42.242Z,88.20
2018-06-16T05:18:09.774Z,87.70
2018-06-16T05:20:37.294Z,87.00
2018-06-16T05:25:32.301Z,86.90
2018-06-16T05:27:59.832Z,86.20
2018-06-16T05:30:27.362Z,86.10
2018-06-16T05:32:54.901Z,86.60
2018-06-16T05:35:22.416Z,85.70
2018-06-16T05:37:49.958Z,85.60
2018-06-16T05:40:17.456Z,84.60
2018-06-16T05:42:44.948Z,84.00
2018-06-16T05:45:12.506Z,84.20
2018-06-16T05:47:40.009Z,83.30
2018-06-16T05:50:07.594Z,83.70
2018-06-16T05:52:35.289Z,82.80
2018-06-16T05:55:02.881Z,82.20
2018-06-16T05:57:30.408Z,81.30
2018-06-16T05:59:57.940Z,81.30
2018-06-16T06:02:25.438Z,81.50
2018-06-16T06:04:53.020Z,80.20
2018-06-16T06:07:20.532Z,80.10
2018-06-16T06:09:48.072Z,80.70
2018-06-16T06:12:15.597Z,82.20
2018-06-16T06:14:43.109Z,81.40
2018-06-16T06:17:10.651Z,81.00
2018-06-16T06:19:38.293Z,80.30
2018-06-16T06:22:05.901Z,79.50
2018-06-16T06:24:33.462Z,79.90
2018-06-16T06:27:00.971Z,79.50
2018-06-16T06:29:28.539Z,79.80
2018-06-16T06:31:56.088Z,78.80
2018-06-16T06:34:23.621Z,79.10
2018-06-16T06:36:51.210Z,80.00
2018-06-16T06:39:18.705Z,78.60
2018-06-16T06:41:46.273Z,78.60
2018-06-16T06:44:13.797Z,77.60
2018-06-16T06:46:41.425Z,78.00
2018-06-16T06:49:08.952Z,78.60
2018-06-16T06:51:36.570Z,79.00
2018-06-16T06:54:04.146Z,77.60
2018-06-16T06:56:31.707Z,76.20
2018-06-16T06:58:59.394Z,73.50
2018-06-16T07:01:27.089Z,72.10
2018-06-16T07:03:54.636Z,71.40
2018-06-16T07:06:22.221Z,71.00
2018-06-16T07:08:49.737Z,71.00
2018-06-16T07:11:17.285Z,71.60
2018-06-16T07:13:44.961Z,69.60
2018-06-16T07:16:12.605Z,70.00
2018-06-16T07:18:40.109Z,70.50
2018-06-16T07:21:07.621Z,67.40
2018-06-16T07:23:35.225Z,68.90
2018-06-16T07:26:02.788Z,67.10
2018-06-16T07:28:30.417Z,66.40
2018-06-16T07:30:57.940Z,67.20
2018-06-16T07:33:27.536Z,65.90
2018-06-16T07:35:55.057Z,66.60
2018-06-16T07:38:22.693Z,65.50
2018-06-16T07:40:50.197Z,65.10
2018-06-16T07:43:17.738Z,66.30
2018-06-16T07:45:45.318Z,67.00
2018-06-16T07:48:13.975Z,67.30
2018-06-16T07:50:41.493Z,66.10
2018-06-16T07:53:09.054Z,65.20
2018-06-16T07:55:36.606Z,65.10
2018-06-16T07:58:04.161Z,61.60
2018-06-16T08:00:31.672Z,63.20
2018-06-16T08:02:59.231Z,61.90
2018-06-16T08:05:26.765Z,59.50
2018-06-16T08:07:54.300Z,60.00
2018-06-16T08:10:21.830Z,61.00
2018-06-16T08:12:52.167Z,59.10
2018-06-16T08:15:19.747Z,59.50
2018-06-16T08:17:47.292Z,57.60
2018-06-16T08:20:14.810Z,58.60
2018-06-16T08:22:42.321Z,61.50
2018-06-16T08:25:09.860Z,59.40
2018-06-16T08:27:37.361Z,56.90
2018-06-16T08:30:04.932Z,57.30
2018-06-16T08:32:32.483Z,57.60
2018-06-16T08:35:00.088Z,57.60
2018-06-16T08:37:27.628Z,58.00
2018-06-16T08:39:55.222Z,55.00
2018-06-16T08:42:23.088Z,56.50
2018-06-16T08:44:50.713Z,55.90
2018-06-16T08:47:18.248Z,57.30
2018-06-16T08:49:45.849Z,56.20
2018-06-16T08:52:13.361Z,56.60
2018-06-16T08:54:40.909Z,55.90
2018-06-16T08:57:08.546Z,55.70
2018-06-16T08:59:36.120Z,55.10
2018-06-16T09:02:03.730Z,54.70
2018-06-16T09:06:58.749Z,55.80
2018-06-16T09:09:26.261Z,56.30
2018-06-16T09:11:53.792Z,55.10
2018-06-16T09:14:21.334Z,54.20
2018-06-16T09:16:48.881Z,53.90
2018-06-16T09:19:16.429Z,54.80
2018-06-16T09:21:44.138Z,54.30
2018-06-16T09:24:11.641Z,51.20
2018-06-16T09:26:39.670Z,52.10
2018-06-16T09:29:07.381Z,52.60
2018-06-16T09:31:34.954Z,51.00
2018-06-16T09:34:02.548Z,51.20
2018-06-16T09:36:30.199Z,51.50
2018-06-16T09:38:57.748Z,52.90
2018-06-16T09:41:25.570Z,51.00
2018-06-16T09:43:53.136Z,50.50
2018-06-16T09:46:20.714Z,49.80
2018-06-16T09:48:48.233Z,49.00
2018-06-16T09:51:15.767Z,48.30
2018-06-16T09:53:43.429Z,49.60
2018-06-16T09:56:10.983Z,49.50
2018-06-16T09:58:38.511Z,50.00
2018-06-16T10:01:06.101Z,49.30
2018-06-16T10:03:33.661Z,49.60
2018-06-16T10:06:01.219Z,49.20
2018-06-16T10:08:28.749Z,46.60
2018-06-16T10:10:56.274Z,48.00
2018-06-16T10:13:23.814Z,47.10
2018-06-16T10:15:51.383Z,47.80
2018-06-16T10:18:19.053Z,47.00
2018-06-16T10:20:46.567Z,47.20
2018-06-16T10:23:14.161Z,47.30
2018-06-16T10:25:41.694Z,44.90
2018-06-16T10:28:09.275Z,45.40
2018-06-16T10:30:36.837Z,44.70
2018-06-16T10:33:04.388Z,45.40
2018-06-16T10:35:31.923Z,44.20
2018-06-16T10:37:59.509Z,44.20
2018-06-16T10:40:27.018Z,43.00
2018-06-16T10:42:54.675Z,42.70
2018-06-16T10:47:49.769Z,43.20
2018-06-16T10:50:17.285Z,42.50
2018-06-16T10:52:44.838Z,41.50
2018-06-16T10:55:12.385Z,42.80
2018-06-16T10:57:39.970Z,43.40
2018-06-16T11:00:08.180Z,42.70
2018-06-16T11:02:35.725Z,42.60
2018-06-16T11:05:03.473Z,42.60
2018-06-16T11:07:30.995Z,42.40
2018-06-16T11:09:58.546Z,42.90
2018-06-16T11:12:26.053Z,43.30
2018-06-16T11:14:54.634Z,44.30
2018-06-16T11:17:22.173Z,45.40
2018-06-16T11:19:49.753Z,43.00
2018-06-16T11:22:17.345Z,44.10
2018-06-16T11:29:39.841Z,43.00
2018-06-16T11:32:07.445Z,42.50
2018-06-16T11:34:35.038Z,42.70
2018-06-16T11:37:02.742Z,40.70
2018-06-16T11:39:30.328Z,42.70
2018-06-16T11:41:57.957Z,41.90
2018-06-16T11:44:25.733Z,41.80
2018-06-16T11:46:53.325Z,42.10
2018-06-16T11:49:20.870Z,42.50
2018-06-16T11:51:48.445Z,43.90
2018-06-16T11:54:15.984Z,41.40
2018-06-16T11:56:43.584Z,41.70
2018-06-16T12:01:38.558Z,42.50
2018-06-16T12:04:06.143Z,43.00
2018-06-16T12:06:35.084Z,44.90
2018-06-16T12:09:03.597Z,42.50
2018-06-16T12:11:31.175Z,44.40
2018-06-16T12:13:58.701Z,44.40
2018-06-16T12:16:27.072Z,43.70
2018-06-16T12:18:54.664Z,44.10
2018-06-16T12:21:22.209Z,43.60
2018-06-16T12:23:49.740Z,43.30
2018-06-16T12:26:17.301Z,42.60
2018-06-16T12:28:44.850Z,44.70
2018-06-16T12:31:12.415Z,44.90
2018-06-16T12:33:39.972Z,43.50
2018-06-16T12:36:07.503Z,44.60
2018-06-16T12:38:35.030Z,45.30
2018-06-16T12:41:02.525Z,44.50
2018-06-16T12:43:30.069Z,44.60
2018-06-16T12:45:57.596Z,42.80
2018-06-16T12:48:25.166Z,41.20
2018-06-16T12:50:52.760Z,41.30
2018-06-16T12:53:20.245Z,41.60
2018-06-16T12:55:47.745Z,42.40
2018-06-16T12:58:15.282Z,40.90
2018-06-16T13:00:42.801Z,42.10
2018-06-16T13:03:10.317Z,41.00
2018-06-16T13:05:38.161Z,42.00
2018-06-16T13:08:05.702Z,42.90
2018-06-16T13:10:33.212Z,44.70
2018-06-16T13:13:00.807Z,46.00
2018-06-16T13:15:28.356Z,45.60
2018-06-16T13:17:55.902Z,47.20
2018-06-16T13:22:51.046Z,49.50
2018-06-16T13:25:18.609Z,50.90
2018-06-16T13:27:46.153Z,52.90
2018-06-16T13:30:13.672Z,55.30
2018-06-16T13:32:41.245Z,53.60
2018-06-16T13:35:08.745Z,52.40
2018-06-16T13:37:36.303Z,50.50
2018-06-16T13:40:03.986Z,50.20
2018-06-16T13:42:31.486Z,50.80
2018-06-16T13:44:59.065Z,50.80
2018-06-16T13:47:26.586Z,50.30
2018-06-16T13:49:54.113Z,51.20
2018-06-16T13:52:21.655Z,51.10
2018-06-16T13:54:49.204Z,51.40
2018-06-16T13:57:16.740Z,52.60
2018-06-16T13:59:44.284Z,51.40
2018-06-16T14:02:11.844Z,50.80
2018-06-16T14:07:06.941Z,50.00
2018-06-16T14:09:34.493Z,51.00
2018-06-16T14:12:02.075Z,50.50
2018-06-16T14:14:29.625Z,52.10
2018-06-16T14:16:57.178Z,51.60
2018-06-16T14:19:24.824Z,49.90
2018-06-16T14:21:52.362Z,51.50
2018-06-16T14:24:19.973Z,49.00
2018-06-16T14:26:47.452Z,49.20
2018-06-16T14:31:42.494Z,48.10
2018-06-16T14:34:10.089Z,48.20
2018-06-16T14:36:37.650Z,47.70
2018-06-16T14:39:06.737Z,46.20
2018-06-16T14:41:34.388Z,48.30
2018-06-16T14:44:02.170Z,49.90
2018-06-16T14:46:29.723Z,48.00
2018-06-16T14:48:57.285Z,48.30
2018-06-16T14:51:24.846Z,46.60
2018-06-16T14:53:52.478Z,46.00
2018-06-16T14:56:20.060Z,47.60
2018-06-16T14:58:47.594Z,47.20
2018-06-16T15:01:15.165Z,46.20
2018-06-16T15:03:42.799Z,46.00
2018-06-16T15:06:10.395Z,45.40
2018-06-16T15:08:38.002Z,45.50
2018-06-16T15:11:05.555Z,43.20
2018-06-16T15:13:33.181Z,41.90
2018-06-16T15:16:01.863Z,43.50
2018-06-16T15:18:29.596Z,45.50
2018-06-16T15:20:57.152Z,45.90
2018-06-16T15:23:24.722Z,43.60
2018-06-16T15:25:53.184Z,45.80
2018-06-16T15:28:20.764Z,46.00
2018-06-16T15:30:48.349Z,47.10
2018-06-16T15:33:15.893Z,47.30
2018-06-16T15:35:43.721Z,45.40
2018-06-16T15:38:11.321Z,45.10
2018-06-16T15:40:38.868Z,44.70
2018-06-16T15:43:06.974Z,43.70
2018-06-16T15:45:34.539Z,40.40
2018-06-16T15:48:02.140Z,37.80
2018-06-16T15:50:29.687Z,37.10
2018-06-16T15:52:57.223Z,37.50
2018-06-16T15:55:24.785Z,35.30
2018-06-16T15:57:52.295Z,33.50
2018-06-16T16:00:19.832Z,32.30
2018-06-16T16:02:47.357Z,31.80
2018-06-16T16:07:42.349Z,33.20
2018-06-16T16:10:09.934Z,32.30
2018-06-16T16:12:37.525Z,34.10
2018-06-16T16:15:05.090Z,33.10
2018-06-16T16:17:32.610Z,33.20
2018-06-16T16:20:00.233Z,32.00
2018-06-16T16:22:27.755Z,29.50
2018-06-16T16:24:55.322Z,27.60
2018-06-16T16:27:22.877Z,28.10
2018-06-16T16:29:50.389Z,27.30
2018-06-16T16:32:17.945Z,26.20
2018-06-16T16:34:45.482Z,27.80
2018-06-16T16:37:13.028Z,26.40
2018-06-16T16:39:40.618Z,25.50
2018-06-16T16:42:08.176Z,27.50
2018-06-16T16:44:35.761Z,27.30
2018-06-16T16:47:03.314Z,29.60
2018-06-16T16:49:30.866Z,30.80
2018-06-16T16:51:58.413Z,31.40
2018-06-16T16:54:25.954Z,33.00
2018-06-16T16:56:53.482Z,35.00
2018-06-16T16:59:21.149Z,35.40
2018-06-16T17:01:49.526Z,37.50
2018-06-16T17:04:17.116Z,38.20
2018-06-16T17:06:44.753Z,40.20
2018-06-16T17:09:12.449Z,41.00
2018-06-16T17:11:40.274Z,40.00
2018-06-16T17:14:07.955Z,41.20
2018-06-16T17:16:35.837Z,42.30
2018-06-16T17:19:03.365Z,42.50
2018-06-16T17:21:30.912Z,42.70
2018-06-16T17:23:58.741Z,43.60
2018-06-16T17:26:26.344Z,44.50
2018-06-16T17:28:53.958Z,44.60
2018-06-16T17:31:21.509Z,44.70
2018-06-16T17:33:49.024Z,49.60
2018-06-16T17:36:16.573Z,57.70
2018-06-16T17:38:44.107Z,62.70
2018-06-16T17:43:39.212Z,80.10
2018-06-16T17:46:06.821Z,82.90
2018-06-16T17:48:34.334Z,88.10
2018-06-16T17:51:01.883Z,90.20
2018-06-16T17:55:56.989Z,91.20
2018-06-16T17:58:24.561Z,92.20
2018-06-16T18:03:19.797Z,91.20
2018-06-16T18:08:14.865Z,91.10
2018-06-16T18:10:43.386Z,90.80
2018-06-16T18:15:38.393Z,91.40
2018-06-16T18:18:05.922Z,91.60
2018-06-16T18:20:33.454Z,91.60
2018-06-16T18:23:01.091Z,91.00
2018-06-16T18:25:28.712Z,91.30
2018-06-16T18:27:57.806Z,90.70
2018-06-16T18:30:25.353Z,91.50
2018-06-16T18:32:52.978Z,92.40
2018-06-16T18:35:20.564Z,91.20
2018-06-16T18:37:48.188Z,91.10
2018-06-16T18:40:15.697Z,91.70
2018-06-16T18:42:43.353Z,91.70
2018-06-16T18:45:10.953Z,91.40
2018-06-16T18:47:38.482Z,91.80
2018-06-16T18:50:06.033Z,91.60
2018-06-16T18:52:33.756Z,91.50
2018-06-16T18:55:01.862Z,92.10
2018-06-16T18:57:29.474Z,92.30
2018-06-16T18:59:56.996Z,92.20
2018-06-16T19:02:24.626Z,91.80
2018-06-16T19:04:52.242Z,92.00
2018-06-16T19:07:19.854Z,92.10
2018-06-16T19:09:47.442Z,91.80
2018-06-16T19:12:15.036Z,91.60
2018-06-16T19:14:42.617Z,91.40
2018-06-16T19:17:10.181Z,91.10
2018-06-16T19:19:37.753Z,91.30
2018-06-16T19:22:05.317Z,92.10
2018-06-16T19:24:32.954Z,91.70
2018-06-16T19:27:00.638Z,91.60
2018-06-16T19:29:28.278Z,91.50
2018-06-16T19:31:55.834Z,91.50
2018-06-16T19:34:23.396Z,91.30
2018-06-16T19:36:50.932Z,91.00
2018-06-16T19:39:18.536Z,90.90
2018-06-16T19:41:46.083Z,91.40
2018-06-16T19:44:13.631Z,91.20
2018-06-16T19:46:41.193Z,91.40
2018-06-16T19:49:09.009Z,91.40
2018-06-16T19:51:36.622Z,91.70
2018-06-16T19:54:04.277Z,91.90
2018-06-16T19:56:31.825Z,92.10
2018-06-16T19:58:59.361Z,92.20
2018-06-16T20:01:27.573Z,92.30
2018-06-16T20:03:55.423Z,91.80
2018-06-16T20:06:23.002Z,92.00
2018-06-16T20:08:50.529Z,92.50
2018-06-16T20:11:18.572Z,92.60
2018-06-16T20:13:46.163Z,92.60
2018-06-16T20:16:13.709Z,92.50
2018-06-16T20:18:41.245Z,92.70
2018-06-16T20:21:08.924Z,92.30
2018-06-16T20:23:36.437Z,92.50
2018-06-16T20:26:04.046Z,91.90
2018-06-16T20:28:31.600Z,92.40
2018-06-16T20:30:59.182Z,92.30
2018-06-16T20:33:26.762Z,92.30
2018-06-16T20:35:54.361Z,92.50
2018-06-16T20:38:22.108Z,92.60
2018-06-16T20:40:49.674Z,92.50
2018-06-16T20:43:17.391Z,92.60
2018-06-16T20:45:45.142Z,92.70
2018-06-16T20:48:12.727Z,92.90
2018-06-16T20:50:40.342Z,93.00
2018-06-16T20:53:07.883Z,93.10
2018-06-16T20:55:35.437Z,93.20
2018-06-16T20:58:03.125Z,93.40
2018-06-16T21:00:30.853Z,93.60
2018-06-16T21:02:58.380Z,93.80
2018-06-16T21:05:26.162Z,94.00
2018-06-16T21:07:53.710Z,94.00
2018-06-16T21:10:21.799Z,94.00
2018-06-16T21:12:49.338Z,94.10
2018-06-16T21:15:16.892Z,94.20
2018-06-16T21:17:44.454Z,94.00
2018-06-16T21:20:12.038Z,94.00
2018-06-16T21:22:39.616Z,94.20
2018-06-16T21:25:07.309Z,94.00
2018-06-16T21:30:03.024Z,93.70
2018-06-16T21:32:30.572Z,93.30
2018-06-16T21:34:58.169Z,93.10
2018-06-16T21:37:25.685Z,92.60
2018-06-16T21:39:53.251Z,92.50
2018-06-16T21:42:20.820Z,92.50
2018-06-16T21:44:48.452Z,92.70
2018-06-16T21:47:15.985Z,92.60
2018-06-16T21:49:43.528Z,92.70
2018-06-16T21:52:11.136Z,92.50
2018-06-16T21:54:38.686Z,92.10
2018-06-16T21:57:06.319Z,92.40
2018-06-16T21:59:33.877Z,92.20
2018-06-16T22:02:01.532Z,92.20
2018-06-16T22:04:29.211Z,92.30
2018-06-16T22:06:56.774Z,92.50
2018-06-16T22:09:24.333Z,92.50
2018-06-16T22:11:51.977Z,92.40
2018-06-16T22:14:19.531Z,92.30
2018-06-16T22:16:47.106Z,92.10
2018-06-16T22:19:15.436Z,91.90
2018-06-16T22:21:43.011Z,92.10
2018-06-16T22:24:10.557Z,92.20
2018-06-16T22:26:38.140Z,92.40
2018-06-16T22:29:06.325Z,92.20
2018-06-16T22:31:33.872Z,92.20
2018-06-16T22:34:01.388Z,92.20
2018-06-16T22:36:28.965Z,92.00
2018-06-16T22:41:24.058Z,92.10
2018-06-16T22:43:51.573Z,91.80
2018-06-16T22:46:19.165Z,91.70
2018-06-16T22:48:46.702Z,91.50
2018-06-16T22:51:14.297Z,91.90
2018-06-16T22:53:41.828Z,91.50
2018-06-16T22:56:10.896Z,91.60
2018-06-16T22:58:38.465Z,91.50
2018-06-16T23:01:06.069Z,91.40
2018-06-16T23:03:33.689Z,91.00
2018-06-16T23:06:01.599Z,91.00
2018-06-16T23:08:29.130Z,90.90
2018-06-16T23:10:56.776Z,90.90
2018-06-16T23:13:24.414Z,91.10
2018-06-16T23:15:51.950Z,91.20
2018-06-16T23:18:19.473Z,91.30
2018-06-16T23:20:47.052Z,91.20
2018-06-16T23:23:14.609Z,91.10
2018-06-16T23:25:42.151Z,90.90
2018-06-16T23:28:09.672Z,90.80
2018-06-16T23:30:37.178Z,90.60
2018-06-16T23:33:04.842Z,91.10
2018-06-16T23:35:32.358Z,91.20
2018-06-16T23:37:59.914Z,90.90
2018-06-16T23:40:32.691Z,91.10
2018-06-16T23:43:01.905Z,91.30
2018-06-16T23:45:29.453Z,91.20
2018-06-16T23:47:56.969Z,91.40
2018-06-16T23:50:24.509Z,91.50
2018-06-16T23:52:52.037Z,91.60
2018-06-16T23:55:19.590Z,92.10
2018-06-16T23:57:47.122Z,91.50
